Time;durP1;ratioP1;P1;durP2;ratioP2;P2;SDS_P1;SDS_P2;PMS_P1;PMS_P2;Temp;Humidity;BMP_temperature;BMP_pressure;BME280_temperature;BME280_humidity;BME280_pressure;Samples;Min_cycle;Max_cycle;Signal;HPM_P1;HPM_P2
2021/10/21 00:00:26;;;;;;;0.73;0.70;;;20.00;1.00;;;;;;5107070;28;20187;-59
2021/10/21 00:02:52;;;;;;;1.87;0.80;;;20.10;1.00;;;;;;5102088;28;20189;-59
2021/10/21 00:05:17;;;;;;;1.00;0.90;;;20.20;1.00;;;;;;5110242;28;20506;-59
2021/10/21 00:07:43;;;;;;;1.67;0.93;;;20.00;1.00;;;;;;5109522;28;20196;-59
2021/10/21 00:10:10;;;;;;;1.80;0.87;;;20.00;1.00;;;;;;5106935;28;20648;-59
2021/10/21 00:12:36;;;;;;;0.80;0.77;;;19.90;1.00;;;;;;5103364;28;20195;-59
2021/10/21 00:15:02;;;;;;;7.70;1.20;;;19.70;1.00;;;;;;5074731;28;20454;-58
2021/10/21 00:17:28;;;;;;;1.03;0.93;;;19.80;1.00;;;;;;5092254;28;20883;-59
2021/10/21 00:19:54;;;;;;;0.90;0.90;;;19.80;1.00;;;;;;5093850;28;20430;-60
2021/10/21 00:22:20;;;;;;;0.80;0.77;;;19.70;1.00;;;;;;5093231;28;20460;-58
2021/10/21 00:24:46;;;;;;;1.40;1.10;;;19.70;1.00;;;;;;5105451;28;20627;-58
2021/10/21 00:27:11;;;;;;;1.37;1.10;;;19.60;1.00;;;;;;5090683;28;20255;-59
2021/10/21 00:29:37;;;;;;;1.03;0.80;;;19.60;1.00;;;;;;5111857;28;20182;-59
2021/10/21 00:32:03;;;;;;;0.83;0.70;;;19.50;1.00;;;;;;5099481;28;20441;-59
2021/10/21 00:34:29;;;;;;;0.90;0.73;;;19.60;1.00;;;;;;5094450;28;20692;-59
2021/10/21 00:36:54;;;;;;;8.40;4.57;;;19.80;1.00;;;;;;5084723;28;20587;-60
2021/10/21 00:39:20;;;;;;;3.43;2.07;;;19.60;1.00;;;;;;5094791;28;20199;-59
2021/10/21 00:41:46;;;;;;;4.30;2.30;;;19.60;1.00;;;;;;5109597;28;20194;-59
2021/10/21 00:44:12;;;;;;;4.50;1.77;;;19.60;1.00;;;;;;5108918;28;20203;-59
2021/10/21 00:46:41;;;;;;;4.80;2.70;;;19.50;1.00;;;;;;5092286;28;20220;-60
2021/10/21 00:49:08;;;;;;;1.90;1.63;;;19.40;1.00;;;;;;5101532;28;20449;-59
2021/10/21 00:51:36;;;;;;;1.87;1.60;;;19.30;1.00;;;;;;5108389;28;21002;-60
2021/10/21 00:54:04;;;;;;;1.60;1.30;;;19.30;1.00;;;;;;5087701;28;20836;-59
2021/10/21 00:56:30;;;;;;;0.90;0.90;;;19.20;1.00;;;;;;5091813;28;20868;-59
2021/10/21 00:58:56;;;;;;;2.73;1.27;;;19.20;1.00;;;;;;5093662;28;20527;-59
2021/10/21 01:01:22;;;;;;;2.17;1.40;;;19.10;1.00;;;;;;5094342;28;20571;-59
2021/10/21 01:03:50;;;;;;;1.10;0.70;;;19.10;1.00;;;;;;5092391;28;20447;-59
2021/10/21 01:06:17;;;;;;;2.63;0.90;;;19.00;1.00;;;;;;5110216;28;20450;-58
2021/10/21 01:08:42;;;;;;;1.10;1.00;;;18.90;1.00;;;;;;5101747;28;20452;-59
2021/10/21 01:11:09;;;;;;;3.20;1.03;;;19.00;1.00;;;;;;5108439;28;20797;-58
2021/10/21 01:13:34;;;;;;;1.40;1.30;;;18.80;1.00;;;;;;5098207;28;20207;-59
2021/10/21 01:16:05;;;;;;;1.07;0.93;;;18.80;1.00;;;;;;5106762;28;20437;-59
2021/10/21 01:18:31;;;;;;;1.30;1.20;;;18.90;1.00;;;;;;5098256;28;20263;-59
2021/10/21 01:20:58;;;;;;;1.50;1.30;;;18.90;1.00;;;;;;5101060;28;20525;-59
2021/10/21 01:23:23;;;;;;;1.63;1.50;;;18.80;1.00;;;;;;5110966;28;20448;-60
2021/10/21 01:25:49;;;;;;;1.90;1.33;;;18.90;1.00;;;;;;5101302;28;20964;-60
2021/10/21 01:28:14;;;;;;;2.57;1.87;;;18.90;1.00;;;;;;5101468;28;20541;-60
2021/10/21 01:30:40;;;;;;;3.87;1.70;;;18.90;1.00;;;;;;5082925;28;20192;-59
2021/10/21 01:33:06;;;;;;;1.40;1.30;;;18.80;1.00;;;;;;5104089;28;20205;-58
2021/10/21 01:35:31;;;;;;;2.77;2.10;;;18.90;1.00;;;;;;5096311;28;20182;-59
2021/10/21 01:37:57;;;;;;;2.50;1.87;;;18.80;1.00;;;;;;5106449;28;20221;-59
2021/10/21 01:40:24;;;;;;;2.27;2.07;;;18.80;1.00;;;;;;5090605;28;20206;-59
2021/10/21 01:42:50;;;;;;;2.00;1.60;;;18.80;1.00;;;;;;5081512;28;20196;-59
2021/10/21 01:45:17;;;;;;;2.30;2.10;;;18.80;1.00;;;;;;5108496;28;20440;-59
2021/10/21 01:47:42;;;;;;;3.63;2.20;;;18.80;1.00;;;;;;5092946;28;20212;-59
2021/10/21 01:50:08;;;;;;;1.80;1.70;;;18.80;1.00;;;;;;5105594;28;20414;-59
2021/10/21 01:52:34;;;;;;;3.90;1.90;;;18.70;1.00;;;;;;5101568;28;20920;-59
2021/10/21 01:54:59;;;;;;;2.63;2.43;;;18.70;1.00;;;;;;5091606;28;20245;-59
2021/10/21 01:57:25;;;;;;;2.33;1.80;;;18.80;1.00;;;;;;5089267;28;20276;-59
2021/10/21 01:59:50;;;;;;;1.70;1.60;;;18.80;1.00;;;;;;5096736;28;20192;-59
2021/10/21 02:02:16;;;;;;;1.53;1.33;;;19.00;1.00;;;;;;5091170;28;20679;-59
2021/10/21 02:04:41;;;;;;;1.20;1.10;;;19.30;1.00;;;;;;5093242;28;20202;-58
2021/10/21 02:07:07;;;;;;;1.30;1.13;;;19.40;1.00;;;;;;5090968;28;20191;-59
2021/10/21 02:09:32;;;;;;;1.30;1.20;;;19.60;1.00;;;;;;5099395;28;20197;-58
2021/10/21 02:11:58;;;;;;;1.50;1.40;;;19.70;1.00;;;;;;5106378;28;20242;-59
2021/10/21 02:14:23;;;;;;;1.90;1.47;;;19.80;1.00;;;;;;5108553;28;20207;-60
2021/10/21 02:16:49;;;;;;;1.77;1.20;;;19.70;1.00;;;;;;5099164;28;20206;-58
2021/10/21 02:19:14;;;;;;;1.60;1.50;;;19.70;1.00;;;;;;5103608;28;20181;-59
2021/10/21 02:21:40;;;;;;;1.40;1.30;;;19.70;1.00;;;;;;5099727;28;20177;-60
2021/10/21 02:24:06;;;;;;;1.20;1.10;;;19.70;1.00;;;;;;5107635;28;20187;-58
2021/10/21 02:26:31;;;;;;;1.50;1.40;;;19.70;1.00;;;;;;5105018;28;20247;-59
2021/10/21 02:28:57;;;;;;;1.60;1.43;;;19.60;1.00;;;;;;5098996;28;20200;-58
2021/10/21 02:31:22;;;;;;;1.57;1.47;;;19.60;1.00;;;;;;5104310;28;20184;-58
2021/10/21 02:33:48;;;;;;;1.67;1.57;;;19.70;1.00;;;;;;5109964;28;20272;-58
2021/10/21 02:36:13;;;;;;;1.80;1.70;;;19.70;1.00;;;;;;5104706;28;20191;-59
2021/10/21 02:38:39;;;;;;;1.90;1.80;;;19.60;1.00;;;;;;5106757;28;20191;-59
2021/10/21 02:41:04;;;;;;;2.90;1.70;;;19.60;1.00;;;;;;5106417;28;20211;-59
2021/10/21 02:43:31;;;;;;;1.60;1.50;;;19.40;1.00;;;;;;5099224;28;20677;-58
2021/10/21 02:45:57;;;;;;;2.57;2.10;;;19.20;1.00;;;;;;5091606;28;20233;-58
2021/10/21 02:48:22;;;;;;;1.30;1.20;;;18.90;1.00;;;;;;5109451;28;20538;-58
2021/10/21 02:50:48;;;;;;;1.33;1.23;;;18.90;1.00;;;;;;5099956;28;20309;-58
2021/10/21 02:53:14;;;;;;;1.30;1.20;;;18.60;1.00;;;;;;5094831;28;20210;-58
2021/10/21 02:55:39;;;;;;;1.60;1.50;;;18.40;1.00;;;;;;5083912;28;20517;-58
2021/10/21 02:58:05;;;;;;;1.90;1.73;;;18.10;1.00;;;;;;5102366;28;20241;-59
2021/10/21 03:00:31;;;;;;;4.30;1.50;;;18.20;1.00;;;;;;5108458;28;20179;-60
2021/10/21 03:02:56;;;;;;;2.50;1.40;;;18.20;1.00;;;;;;5112190;28;20452;-58
2021/10/21 03:05:24;;;;;;;1.40;1.30;;;18.20;1.00;;;;;;5100548;28;20745;-58
2021/10/21 03:07:50;;;;;;;1.60;1.50;;;18.20;1.00;;;;;;5099955;28;20185;-60
2021/10/21 03:10:15;;;;;;;1.67;1.50;;;18.10;1.00;;;;;;5083515;28;20449;-60
2021/10/21 03:12:41;;;;;;;1.43;1.33;;;18.10;1.00;;;;;;5107399;28;20258;-59
2021/10/21 03:15:07;;;;;;;3.97;1.40;;;17.90;1.00;;;;;;5111398;28;20193;-59
2021/10/21 03:17:33;;;;;;;1.67;1.57;;;17.80;1.00;;;;;;5103275;28;20187;-59
2021/10/21 03:19:58;;;;;;;1.40;1.30;;;17.80;1.00;;;;;;5113647;28;20492;-61
2021/10/21 03:22:24;;;;;;;3.07;1.20;;;17.80;1.00;;;;;;5108961;28;20221;-59
2021/10/21 03:24:51;;;;;;;1.60;1.50;;;17.80;1.00;;;;;;5093532;28;20278;-58
2021/10/21 03:27:16;;;;;;;2.97;1.60;;;17.60;1.00;;;;;;5094971;28;20183;-61
2021/10/21 03:29:42;;;;;;;1.50;1.40;;;17.50;1.00;;;;;;5098735;28;20810;-58
2021/10/21 03:32:08;;;;;;;2.20;2.00;;;17.40;1.00;;;;;;5097671;28;20548;-59
2021/10/21 03:34:33;;;;;;;2.20;1.50;;;17.30;1.00;;;;;;5107235;28;20217;-59
2021/10/21 03:36:59;;;;;;;1.77;1.30;;;17.30;1.00;;;;;;5093117;28;20279;-59
2021/10/21 03:39:24;;;;;;;1.80;1.70;;;17.20;1.00;;;;;;5112265;28;20254;-60
2021/10/21 03:41:50;;;;;;;1.40;1.20;;;17.20;1.00;;;;;;5095920;28;20187;-59
2021/10/21 03:44:15;;;;;;;1.43;1.33;;;17.30;1.00;;;;;;5087089;28;20196;-58
2021/10/21 03:46:41;;;;;;;1.27;1.17;;;17.30;1.00;;;;;;5112484;28;20223;-60
2021/10/21 03:49:07;;;;;;;1.70;1.30;;;;;;;;;;5109909;28;20186;-59
2021/10/21 03:51:33;;;;;;;1.63;1.30;;;17.30;1.00;;;;;;5111840;28;20231;-59
2021/10/21 03:53:58;;;;;;;1.50;1.30;;;17.30;1.00;;;;;;5100526;28;20468;-59
2021/10/21 03:56:24;;;;;;;3.13;1.70;;;17.30;1.00;;;;;;5103115;28;20683;-60
2021/10/21 03:58:49;;;;;;;3.20;1.93;;;17.20;1.00;;;;;;5104181;28;20189;-58
2021/10/21 04:01:15;;;;;;;5.00;2.37;;;17.30;1.00;;;;;;5112011;28;20294;-59
2021/10/21 04:03:41;;;;;;;2.30;2.10;;;17.20;1.00;;;;;;5111543;28;20179;-59
2021/10/21 04:06:06;;;;;;;2.53;2.27;;;17.20;1.00;;;;;;5106853;28;20692;-60
2021/10/21 04:08:32;;;;;;;2.20;2.00;;;17.30;1.00;;;;;;5106860;28;20928;-60
2021/10/21 04:10:57;;;;;;;1.70;1.60;;;17.30;1.00;;;;;;5108909;28;20666;-60
2021/10/21 04:13:23;;;;;;;2.33;2.13;;;17.30;1.00;;;;;;5104657;28;20684;-58
2021/10/21 04:15:48;;;;;;;2.77;2.57;;;17.30;1.00;;;;;;5105866;28;20178;-59
2021/10/21 04:18:14;;;;;;;2.47;2.00;;;17.40;1.00;;;;;;5104689;28;20536;-60
2021/10/21 04:20:40;;;;;;;2.67;2.40;;;17.30;1.00;;;;;;5111486;28;20175;-60
2021/10/21 04:23:05;;;;;;;3.70;2.33;;;17.30;1.00;;;;;;5105626;28;20182;-59
2021/10/21 04:25:31;;;;;;;2.40;2.20;;;17.40;1.00;;;;;;5101120;28;20272;-59
2021/10/21 04:27:56;;;;;;;2.67;2.47;;;17.40;1.00;;;;;;5100477;28;20179;-59
2021/10/21 04:30:22;;;;;;;1.80;1.70;;;17.40;1.00;;;;;;5110548;28;20239;-59
2021/10/21 04:32:47;;;;;;;1.40;1.30;;;17.40;1.00;;;;;;5092901;28;20183;-60
2021/10/21 04:35:13;;;;;;;1.23;1.10;;;17.60;1.00;;;;;;5106308;28;20190;-59
2021/10/21 04:37:39;;;;;;;1.67;1.10;;;17.70;1.00;;;;;;5098261;28;20210;-60
2021/10/21 04:40:05;;;;;;;0.77;0.77;;;18.00;1.00;;;;;;5104808;28;20510;-59
2021/10/21 04:42:30;;;;;;;2.93;1.07;;;18.20;1.00;;;;;;5099177;28;20425;-59
2021/10/21 04:44:56;;;;;;;2.07;1.03;;;18.30;1.00;;;;;;5105382;28;20479;-59
2021/10/21 04:47:22;;;;;;;1.10;1.00;;;18.50;1.00;;;;;;5095228;28;20244;-60
2021/10/21 04:49:47;;;;;;;2.07;1.07;;;18.50;1.00;;;;;;5111333;28;20197;-60
2021/10/21 04:52:13;;;;;;;1.13;1.03;;;18.60;1.00;;;;;;5096138;28;20193;-60
2021/10/21 04:54:39;;;;;;;1.50;1.30;;;18.60;1.00;;;;;;5104316;28;20305;-61
2021/10/21 04:57:06;;;;;;;2.50;1.40;;;18.50;1.00;;;;;;5093980;28;20188;-60
2021/10/21 04:59:32;;;;;;;2.17;1.80;;;18.60;1.00;;;;;;5099694;28;20530;-59
2021/10/21 05:01:57;;;;;;;1.43;1.33;;;18.70;1.00;;;;;;5103924;28;20535;-60
2021/10/21 05:04:23;;;;;;;2.30;1.90;;;18.70;1.00;;;;;;5098085;28;20195;-60
2021/10/21 05:06:49;;;;;;;2.97;2.10;;;18.70;1.00;;;;;;5094455;28;20574;-60
2021/10/21 05:09:15;;;;;;;2.00;1.83;;;18.70;1.00;;;;;;5106577;28;20531;-60
2021/10/21 05:11:41;;;;;;;2.77;2.13;;;18.80;1.00;;;;;;5102356;28;20182;-60
2021/10/21 05:14:06;;;;;;;3.20;2.43;;;18.70;1.00;;;;;;5093936;28;20451;-61
2021/10/21 05:16:32;;;;;;;2.53;2.33;;;18.80;1.00;;;;;;5094873;28;20183;-60
2021/10/21 05:18:57;;;;;;;2.53;2.33;;;18.80;1.00;;;;;;5091516;28;20209;-60
2021/10/21 05:21:23;;;;;;;3.07;2.20;;;18.80;1.00;;;;;;5099923;28;20185;-60
2021/10/21 05:23:48;;;;;;;2.60;2.40;;;18.80;1.00;;;;;;5106569;28;20596;-60
2021/10/21 05:26:14;;;;;;;5.20;2.17;;;18.80;1.00;;;;;;5094270;28;20516;-60
2021/10/21 05:28:39;;;;;;;3.70;2.60;;;18.80;1.00;;;;;;5076399;28;20194;-59
2021/10/21 05:31:05;;;;;;;2.47;2.27;;;18.80;1.00;;;;;;5105275;28;20195;-60
2021/10/21 05:33:35;;;;;;;2.80;2.60;;;18.70;1.00;;;;;;5110769;28;20560;-60
2021/10/21 05:36:02;;;;;;;2.80;2.60;;;18.60;1.00;;;;;;5088507;28;20279;-59
2021/10/21 05:38:28;;;;;;;3.40;3.17;;;18.60;1.00;;;;;;5092002;28;20438;-62
2021/10/21 05:40:54;;;;;;;5.70;2.83;;;18.60;1.00;;;;;;5093967;28;20487;-61
2021/10/21 05:43:22;;;;;;;2.93;2.73;;;18.60;1.00;;;;;;5111045;28;20418;-60
2021/10/21 05:45:47;;;;;;;3.03;2.50;;;18.60;1.00;;;;;;5103763;28;20394;-60
2021/10/21 05:48:15;;;;;;;2.93;2.73;;;18.50;1.00;;;;;;5072461;28;20466;-61
2021/10/21 05:50:40;;;;;;;2.80;2.60;;;18.50;1.00;;;;;;5091107;28;20190;-61
2021/10/21 05:53:06;;;;;;;2.90;2.43;;;18.50;1.00;;;;;;5097234;28;20464;-61
2021/10/21 05:55:31;;;;;;;2.83;2.17;;;18.50;1.00;;;;;;5092361;28;20175;-62
2021/10/21 05:57:57;;;;;;;1.63;1.53;;;18.50;1.00;;;;;;5110892;28;20688;-60
2021/10/21 06:00:23;;;;;;;1.90;1.80;;;18.60;1.00;;;;;;5107516;28;20171;-60
2021/10/21 06:02:48;;;;;;;2.87;1.90;;;18.60;1.00;;;;;;5108807;28;20190;-60
2021/10/21 06:05:14;;;;;;;2.07;1.33;;;18.60;1.00;;;;;;5108751;28;20185;-61
2021/10/21 06:07:39;;;;;;;1.83;1.30;;;18.60;1.00;;;;;;5092622;28;20244;-61
2021/10/21 06:10:05;;;;;;;2.33;1.67;;;18.60;1.00;;;;;;5110218;28;20207;-62
2021/10/21 06:12:30;;;;;;;1.30;1.20;;;18.70;1.00;;;;;;5109454;28;20207;-59
2021/10/21 06:14:56;;;;;;;1.67;1.57;;;18.60;1.00;;;;;;5092411;28;20644;-59
2021/10/21 06:17:24;;;;;;;1.50;1.30;;;18.60;1.00;;;;;;5095996;28;20700;-62
2021/10/21 06:19:49;;;;;;;1.33;1.23;;;18.60;1.00;;;;;;5090969;28;20179;-60
2021/10/21 06:22:18;;;;;;;1.30;1.20;;;18.60;1.00;;;;;;5090407;28;20889;-60
2021/10/21 06:24:45;;;;;;;1.63;1.23;;;18.60;1.00;;;;;;5090127;28;20649;-60
2021/10/21 06:27:11;;;;;;;1.60;1.30;;;18.50;1.00;;;;;;5094736;28;20446;-60
2021/10/21 06:29:39;;;;;;;2.07;1.13;;;18.50;1.00;;;;;;5071696;28;21011;-60
2021/10/21 06:32:05;;;;;;;2.00;0.97;;;18.30;1.00;;;;;;5094304;28;20184;-60
2021/10/21 06:34:31;;;;;;;0.90;0.77;;;18.20;1.00;;;;;;5090665;28;20490;-60
2021/10/21 06:36:56;;;;;;;0.90;0.70;;;18.00;1.00;;;;;;5094251;28;20443;-61
2021/10/21 06:39:22;;;;;;;1.60;0.73;;;17.90;1.00;;;;;;5113525;28;20187;-59
2021/10/21 06:41:47;;;;;;;5.50;1.17;;;17.60;1.00;;;;;;5114187;28;20238;-61
2021/10/21 06:44:13;;;;;;;2.40;0.97;;;17.60;1.00;;;;;;5113894;28;20661;-62
2021/10/21 06:46:39;;;;;;;2.20;0.70;;;17.60;1.00;;;;;;5114700;28;20232;-60
2021/10/21 06:49:05;;;;;;;1.10;0.67;;;17.70;1.00;;;;;;5106272;28;20592;-60
2021/10/21 06:51:30;;;;;;;1.27;0.67;;;17.80;1.00;;;;;;5097056;28;20184;-62
2021/10/21 06:53:56;;;;;;;0.93;0.70;;;17.90;1.00;;;;;;5106808;28;20853;-60
2021/10/21 06:56:21;;;;;;;1.43;0.87;;;17.90;1.00;;;;;;5114420;28;20249;-62
2021/10/21 06:58:47;;;;;;;1.77;0.60;;;17.90;1.00;;;;;;5111478;28;20213;-59
2021/10/21 07:01:12;;;;;;;1.40;0.90;;;17.90;1.00;;;;;;5111728;28;20178;-59
2021/10/21 07:03:38;;;;;;;1.63;1.17;;;17.90;1.00;;;;;;5096920;28;20676;-59
2021/10/21 07:06:03;;;;;;;0.80;0.70;;;17.80;1.00;;;;;;5094431;28;20644;-59
2021/10/21 07:08:29;;;;;;;2.30;1.13;;;17.70;1.00;;;;;;5107553;28;20577;-59
2021/10/21 07:10:57;;;;;;;6.03;1.40;;;17.70;1.00;;;;;;5098796;28;20193;-60
2021/10/21 07:13:23;;;;;;;1.90;0.80;;;17.70;1.00;;;;;;5096338;28;20493;-61
2021/10/21 07:15:49;;;;;;;3.50;1.60;;;17.70;1.00;;;;;;5094753;28;20436;-60
2021/10/21 07:18:14;;;;;;;0.80;0.73;;;17.90;1.00;;;;;;5075699;28;20953;-60
2021/10/21 07:20:40;;;;;;;1.13;0.90;;;17.90;1.00;;;;;;5075592;28;20187;-60
2021/10/21 07:23:06;;;;;;;1.00;0.70;;;17.80;1.00;;;;;;5095423;28;20247;-60
2021/10/21 07:25:31;;;;;;;2.20;1.17;;;17.90;1.00;;;;;;5094624;28;20182;-59
2021/10/21 07:27:58;;;;;;;2.10;0.90;;;18.00;1.00;;;;;;5099814;28;20174;-60
2021/10/21 07:30:26;;;;;;;2.03;1.10;;;18.00;1.00;;;;;;5101708;28;20232;-59
2021/10/21 07:32:52;;;;;;;0.90;0.80;;;18.10;1.00;;;;;;5094238;28;20517;-60
2021/10/21 07:35:17;;;;;;;1.30;1.10;;;18.00;1.00;;;;;;5093472;28;20404;-59
2021/10/21 07:37:43;;;;;;;1.30;1.10;;;17.80;1.00;;;;;;5077941;28;20206;-58
2021/10/21 07:40:10;;;;;;;1.70;1.20;;;17.80;1.00;;;;;;5093112;28;20186;-59
2021/10/21 07:42:40;;;;;;;0.93;0.90;;;17.80;1.00;;;;;;5094952;28;20458;-59
2021/10/21 07:45:07;;;;;;;2.13;1.20;;;17.70;1.00;;;;;;5092840;28;20439;-59
2021/10/21 07:47:33;;;;;;;1.80;1.20;;;17.50;1.00;;;;;;5092546;28;20622;-59
2021/10/21 07:49:59;;;;;;;7.13;1.10;;;17.50;1.00;;;;;;5093694;28;20944;-58
2021/10/21 07:52:25;;;;;;;1.43;1.00;;;17.50;1.00;;;;;;5113311;28;20807;-60
2021/10/21 07:54:51;;;;;;;2.43;0.93;;;17.50;1.00;;;;;;5113097;28;20252;-59
2021/10/21 07:57:19;;;;;;;3.30;1.20;;;17.50;1.00;;;;;;5113126;28;20841;-60
2021/10/21 07:59:45;;;;;;;3.93;1.00;;;17.50;1.00;;;;;;5113029;28;20431;-58
2021/10/21 08:02:11;;;;;;;1.60;0.80;;;17.60;1.00;;;;;;5112279;28;20414;-59
2021/10/21 08:04:36;;;;;;;4.20;1.40;;;17.50;1.00;;;;;;5112961;28;20222;-59
2021/10/21 08:07:03;;;;;;;3.97;1.00;;;17.50;1.00;;;;;;5111029;28;20195;-59
2021/10/21 08:09:32;;;;;;;5.60;1.60;;;17.50;1.00;;;;;;5092558;28;20184;-59
2021/10/21 08:11:59;;;;;;;2.30;1.20;;;17.50;1.00;;;;;;5092202;28;20940;-58
2021/10/21 08:14:25;;;;;;;3.93;1.53;;;17.50;1.00;;;;;;5092395;28;20474;-60
2021/10/21 08:16:52;;;;;;;7.53;1.10;;;17.70;1.00;;;;;;5092784;28;20537;-59
2021/10/21 08:19:18;;;;;;;4.53;1.10;;;17.70;1.00;;;;;;5092745;28;20454;-60
2021/10/21 08:21:46;;;;;;;2.40;0.80;;;17.70;1.00;;;;;;5092604;28;20441;-60
2021/10/21 08:24:12;;;;;;;4.00;1.17;;;17.60;1.00;;;;;;5110000;28;20265;-61
2021/10/21 08:26:38;;;;;;;4.20;1.20;;;17.50;1.00;;;;;;5111480;28;20542;-58
2021/10/21 08:29:04;;;;;;;2.97;1.10;;;17.40;1.00;;;;;;5094897;28;20194;-59
2021/10/21 08:31:29;;;;;;;2.50;1.00;;;17.60;1.00;;;;;;5106870;28;20196;-59
2021/10/21 08:33:55;;;;;;;6.43;1.00;;;17.70;1.00;;;;;;5100272;28;20552;-57
2021/10/21 08:36:22;;;;;;;3.20;1.50;;;17.80;1.00;;;;;;5099735;28;20542;-58
2021/10/21 08:38:51;;;;;;;6.57;0.90;;;17.80;1.00;;;;;;5102336;28;20185;-58
2021/10/21 08:41:18;;;;;;;3.13;0.93;;;18.00;1.00;;;;;;5097550;28;20436;-58
2021/10/21 08:43:45;;;;;;;1.73;0.83;;;18.20;1.00;;;;;;5083303;28;20434;-59
2021/10/21 08:46:13;;;;;;;1.77;0.70;;;18.20;1.00;;;;;;5097069;28;20475;-58
2021/10/21 08:48:44;;;;;;;3.13;0.70;;;18.10;1.00;;;;;;5096504;28;20444;-58
2021/10/21 08:51:10;;;;;;;3.97;1.00;;;18.20;1.00;;;;;;5102629;28;20527;-58
2021/10/21 08:53:36;;;;;;;3.60;0.90;;;18.30;1.00;;;;;;5100926;28;20452;-57
2021/10/21 08:56:04;;;;;;;2.37;0.60;;;18.30;1.00;;;;;;5104640;28;20440;-57
2021/10/21 08:58:30;;;;;;;1.70;0.70;;;18.20;1.00;;;;;;5101870;28;20616;-58
2021/10/21 09:01:00;;;;;;;6.60;1.63;;;18.10;1.00;;;;;;5096583;28;21013;-57
2021/10/21 09:09:00;;;;;;;5.33;1.10;;;17.90;1.00;;;;;;5107516;28;20520;-59
2021/10/21 09:11:26;;;;;;;5.03;1.10;;;17.90;1.00;;;;;;5099531;28;20530;-58
2021/10/21 09:14:13;;;;;;;5.60;0.83;;;18.00;1.00;;;;;;5101930;28;20208;-57
2021/10/21 09:16:39;;;;;;;17.77;1.10;;;18.10;1.00;;;;;;5102662;28;20430;-58
2021/10/21 09:19:12;;;;;;;1.40;1.00;;;18.20;1.00;;;;;;5106503;28;20431;-58
2021/10/21 09:21:42;;;;;;;4.50;1.00;;;17.70;1.00;;;;;;5105522;28;20535;-58
2021/10/21 09:24:25;;;;;;;4.37;0.83;;;18.30;1.00;;;;;;5102094;28;20481;-57
2021/10/21 09:27:12;;;;;;;3.80;1.00;;;18.30;1.00;;;;;;5098680;28;20406;-59
2021/10/21 09:29:40;;;;;;;2.63;1.07;;;18.10;1.00;;;;;;5106461;28;20440;-58
2021/10/21 09:32:10;;;;;;;6.40;1.03;;;18.20;1.00;;;;;;5104074;28;21101;-57
2021/10/21 09:34:53;;;;;;;4.47;0.67;;;18.20;1.00;;;;;;5106709;28;21006;-58
2021/10/21 09:37:27;;;;;;;3.17;1.27;;;18.20;1.00;;;;;;5109766;28;20413;-59
2021/10/21 09:39:58;;;;;;;6.33;0.70;;;18.20;1.00;;;;;;5096620;28;20982;-58
2021/10/21 09:42:38;;;;;;;5.80;1.03;;;18.20;1.00;;;;;;5083300;28;20535;-60
2021/10/21 09:45:26;;;;;;;7.10;1.50;;;17.90;1.00;;;;;;5102730;28;20856;-59
2021/10/21 09:47:58;;;;;;;1.83;0.53;;;17.90;1.00;;;;;;5103449;28;20837;-58
2021/10/21 09:50:27;;;;;;;4.53;0.97;;;18.00;1.00;;;;;;5105648;28;20569;-58
2021/10/21 09:53:14;;;;;;;4.83;0.90;;;18.10;1.00;;;;;;5099850;28;20463;-58
2021/10/21 09:55:42;;;;;;;5.30;0.93;;;18.20;1.00;;;;;;5107363;28;20559;-59
2021/10/21 09:58:10;;;;;;;4.50;1.83;;;18.10;1.00;;;;;;5087551;28;20442;-60
2021/10/21 10:00:39;;;;;;;4.70;0.90;;;17.90;1.00;;;;;;5107763;28;20470;-60
2021/10/21 10:03:30;;;;;;;6.20;0.77;;;17.80;1.00;;;;;;5105563;28;20932;-59
2021/10/21 10:05:56;;;;;;;5.03;1.00;;;17.80;1.00;;;;;;5100119;28;20443;-60
2021/10/21 10:08:23;;;;;;;4.73;0.80;;;18.10;1.00;;;;;;5103658;28;20428;-60
2021/10/21 10:10:51;;;;;;;4.70;1.43;;;18.20;1.00;;;;;;5104892;28;20179;-57
2021/10/21 10:13:18;;;;;;;6.87;0.70;;;18.20;1.00;;;;;;5087659;28;20420;-60
2021/10/21 10:15:45;;;;;;;6.13;1.30;;;17.90;1.00;;;;;;5100788;28;20430;-59
2021/10/21 10:18:26;;;;;;;2.40;1.00;;;17.80;1.00;;;;;;5100087;28;20522;-59
2021/10/21 10:21:16;;;;;;;4.47;1.20;;;17.90;1.00;;;;;;5098921;28;20407;-58
2021/10/21 10:24:10;;;;;;;4.97;0.97;;;17.80;1.00;;;;;;5105602;28;20441;-58
2021/10/21 10:26:45;;;;;;;4.10;0.80;;;17.80;1.00;;;;;;5095795;28;20450;-57
2021/10/21 10:29:18;;;;;;;2.00;0.60;;;17.60;1.00;;;;;;5101984;28;20440;-58
2021/10/21 10:31:49;;;;;;;6.10;0.70;;;17.60;1.00;;;;;;5102626;28;20493;-59
2021/10/21 10:34:40;;;;;;;1.80;0.70;;;17.40;1.00;;;;;;5106022;28;20741;-59
2021/10/21 10:37:19;;;;;;;2.00;0.50;;;18.20;1.00;;;;;;5071660;28;20469;-59
2021/10/21 10:39:51;;;;;;;3.00;0.60;;;17.60;1.00;;;;;;5100561;28;20895;-58
2021/10/21 10:42:42;;;;;;;2.00;0.40;;;17.30;1.00;;;;;;5099675;28;20435;-59
2021/10/21 10:45:10;;;;;;;1.60;0.50;;;17.30;1.00;;;;;;5099410;28;20422;-59
2021/10/21 10:47:54;;;;;;;3.97;0.63;;;17.40;1.00;;;;;;5098840;28;20498;-59
2021/10/21 10:50:22;;;;;;;2.00;0.73;;;17.30;1.00;;;;;;5097454;28;20497;-58
2021/10/21 10:53:05;;;;;;;2.93;0.97;;;17.10;1.00;;;;;;5087255;28;20518;-58
2021/10/21 10:55:46;;;;;;;6.60;1.30;;;17.20;1.00;;;;;;5102357;28;20930;-58
2021/10/21 10:58:25;;;;;;;3.57;0.40;;;16.90;1.00;;;;;;5093045;28;20503;-57
2021/10/21 11:00:58;;;;;;;3.27;0.43;;;16.50;1.00;;;;;;5098135;28;20432;-59
2021/10/21 11:03:42;;;;;;;4.20;1.67;;;16.30;1.00;;;;;;5110208;28;20442;-59
2021/10/21 11:06:24;;;;;;;7.10;0.80;;;15.60;1.00;;;;;;5100599;28;20434;-59
2021/10/21 11:09:03;;;;;;;5.50;0.50;;;15.20;1.00;;;;;;5090041;28;21034;-59
2021/10/21 11:11:49;;;;;;;7.93;0.90;;;14.90;1.00;;;;;;5095804;28;20439;-58
2021/10/21 11:14:33;;;;;;;2.03;0.70;;;15.00;1.00;;;;;;5106301;28;21042;-58
2021/10/21 11:16:58;;;;;;;2.33;0.40;;;15.30;1.00;;;;;;5092264;28;20417;-58
2021/10/21 11:19:36;;;;;;;4.60;0.60;;;15.40;1.00;;;;;;5102818;28;20922;-58
2021/10/21 11:22:03;;;;;;;3.03;0.50;;;15.50;1.00;;;;;;5108295;28;20221;-65
2021/10/21 11:24:47;;;;;;;4.90;0.50;;;15.40;1.00;;;;;;5103879;28;20420;-59
2021/10/21 11:27:28;;;;;;;1.43;0.87;;;15.40;1.00;;;;;;5094780;28;20429;-61
2021/10/21 11:29:59;;;;;;;8.07;0.50;;;15.50;1.00;;;;;;5107205;28;20439;-61
2021/10/21 11:32:31;;;;;;;3.33;1.27;;;15.60;1.00;;;;;;5103196;28;20936;-61
2021/10/21 11:34:57;;;;;;;3.53;0.50;;;15.40;1.00;;;;;;5109552;28;20465;-57
2021/10/21 11:37:37;;;;;;;0.70;0.27;;;15.10;1.00;;;;;;5100322;28;20440;-59
2021/10/21 11:40:05;;;;;;;4.47;0.60;;;15.20;1.00;;;;;;5101480;28;20701;-66
2021/10/21 11:42:31;;;;;;;3.90;0.50;;;15.20;1.00;;;;;;5094239;28;20419;-60
2021/10/21 11:45:08;;;;;;;2.53;0.50;;;15.20;1.00;;;;;;5106535;28;20521;-58
2021/10/21 11:47:35;;;;;;;5.10;0.40;;;15.40;1.00;;;;;;5112507;28;20615;-57
2021/10/21 11:50:01;;;;;;;2.93;0.50;;;15.30;1.00;;;;;;5098897;28;20964;-58
2021/10/21 11:52:41;;;;;;;0.97;0.40;;;15.30;1.00;;;;;;5111631;28;20434;-59
2021/10/21 11:55:07;;;;;;;2.23;0.40;;;15.40;1.00;;;;;;5099575;28;20560;-59
2021/10/21 11:57:35;;;;;;;2.37;0.40;;;15.50;1.00;;;;;;5099779;28;20408;-60
2021/10/21 12:00:17;;;;;;;0.90;0.30;;;15.80;1.00;;;;;;5093778;28;20930;-57
2021/10/21 12:02:43;;;;;;;0.67;0.40;;;15.80;1.00;;;;;;5092800;28;20443;-58
2021/10/21 12:05:08;;;;;;;0.80;0.40;;;15.60;1.00;;;;;;5104472;28;20859;-58
2021/10/21 12:07:34;;;;;;;1.63;0.50;;;15.40;1.00;;;;;;5095865;28;20181;-58
2021/10/21 12:09:59;;;;;;;2.50;0.60;;;15.50;1.00;;;;;;5105752;28;20194;-59
2021/10/21 12:12:38;;;;;;;4.43;0.43;;;15.60;1.00;;;;;;5094492;28;20189;-58
2021/10/21 12:15:07;;;;;;;1.53;0.40;;;15.70;1.00;;;;;;5097378;28;20733;-59
2021/10/21 12:17:32;;;;;;;0.90;0.53;;;15.90;1.00;;;;;;5093088;28;20432;-58
2021/10/21 12:19:58;;;;;;;3.83;0.40;;;16.10;1.00;;;;;;5092511;28;20447;-58
2021/10/21 12:22:28;;;;;;;0.70;0.40;;;16.10;1.00;;;;;;5103298;28;21329;-57
2021/10/21 12:24:53;;;;;;;0.90;0.40;;;16.10;1.00;;;;;;5111740;28;20526;-58
2021/10/21 12:27:21;;;;;;;2.60;0.30;;;16.20;1.00;;;;;;5103018;28;20416;-57
2021/10/21 12:29:47;;;;;;;1.27;0.70;;;16.20;1.00;;;;;;5092098;28;20203;-58
2021/10/21 12:32:15;;;;;;;2.87;0.77;;;16.20;1.00;;;;;;5091465;28;20488;-59
2021/10/21 12:34:41;;;;;;;1.30;0.30;;;16.00;1.00;;;;;;5099655;28;20872;-58
2021/10/21 12:37:22;;;;;;;1.77;0.73;;;16.10;1.00;;;;;;5111335;28;20521;-58
2021/10/21 12:39:48;;;;;;;0.60;0.60;;;15.90;1.00;;;;;;5106189;28;21020;-59
2021/10/21 12:42:24;;;;;;;1.17;0.50;;;15.70;1.00;;;;;;5100807;28;20418;-56
2021/10/21 12:45:00;;;;;;;3.30;0.50;;;15.70;1.00;;;;;;5110438;28;20422;-58
2021/10/21 12:47:37;;;;;;;1.20;0.50;;;16.00;1.00;;;;;;5111950;28;20816;-56
2021/10/21 12:50:15;;;;;;;0.70;0.40;;;15.90;1.00;;;;;;5097735;28;20475;-59
2021/10/21 12:53:00;;;;;;;1.97;0.67;;;16.00;1.00;;;;;;5103931;28;20806;-57
2021/10/21 12:55:33;;;;;;;0.73;0.50;;;16.40;1.00;;;;;;5095947;28;20496;-57
2021/10/21 12:58:04;;;;;;;3.10;0.60;;;16.40;1.00;;;;;;5080438;28;20440;-57
2021/10/21 13:00:39;;;;;;;1.37;0.50;;;16.10;1.00;;;;;;5091974;28;20419;-57
2021/10/21 13:03:14;;;;;;;2.40;0.80;;;16.00;1.00;;;;;;5095785;28;20965;-57
2021/10/21 13:05:41;;;;;;;1.53;0.50;;;16.00;1.00;;;;;;5097238;28;20420;-58
2021/10/21 13:08:07;;;;;;;0.50;0.30;;;15.90;1.00;;;;;;5077251;28;20449;-56